Benson, United Kingdom

8:58 PM GMT on October 31, 2014 (GMT +0000)
IOXFORDS9 | Change Station
CLOSE
Current Station
Personal Weather Station
Location: Wallingford, OXFORDSHIRE
Elevation: 154 ft
Nearby Weather Stations

Elev 154 ft 51.58 °N, 1.14 °W | Updated 8 minutes ago

Clear
Clear
59.2 °F
Feels Like 59.2 °F
N
5.4
Wind Variable Wind from North
Gusts 6.3 mph

Today
High -- | Low -- °F
--% Chance of Precip.
Yesterday
High -- | Low -- °F
Precip. -- in
6:56 AM 4:39 PM
First Quarter, 59% visible
Pressure 29.92 in
Visibility 6.2 miles
Clouds
Dew Point 53 °F
Humidity 80%
Rainfall 0.00 in
Snow Depth Not available.
UV Not available.
Pollen Not available.
Air Quality Not available.
Flu Activity Not available.
METAR EGUB 311950Z AUTO 13013KT 9999 // NCD 16/12 Q1013

More Conditions Fewer Conditions

Pressure 29.92 in
Visibility 6.2 miles
Clouds
Dew Point 53 °F
Humidity 80%
Rainfall 0.00 in
Snow Depth Not available.
UV Not available.
Pollen Not available.
Air Quality Not available.
Flu Activity Not available.
METAR EGUB 311950Z AUTO 13013KT 9999 // NCD 16/12 Q1013

More Conditions Fewer Conditions

10-Day Weather Forecast

Almanac

Astronomy

Oct. 31, 2014 Rise Set
Actual Time
Civil Twilight
Nautical Twilight
Astronomical Twilight
Moon
Length of Visible Light
Length of Day
Tomorrow will be .
, % of the Moon is Illuminated

Today's Extremes

Country Highs Country Lows

Community

WunderPhotos

Upload Photos

1,766,734 photos uploaded!

WunderBlogs® & News

Nearby

Air Quality

  Air Quality AQ Index Pollutant
Not available.

Snow Depth

Station Depth Elevation

Earthquake Activity

City Distance Mag. Time & Date
Minimum magnitude displayed is 2.5.

Coastal Water Temperatures

Place Temperature

Nearby Weather Stations